createdAt,value
2022-09-22T00:03:58.919Z,0.93
2022-09-22T00:06:29.779Z,0.98
2022-09-22T00:09:02.305Z,1.65
2022-09-22T00:11:33.704Z,1.35
2022-09-22T00:14:16.466Z,1.05
2022-09-22T00:16:48.483Z,0.77
2022-09-22T00:19:22.525Z,0.68
2022-09-22T00:21:50.827Z,1.17
2022-09-22T00:24:19.598Z,0.65
2022-09-22T00:26:47.072Z,1.20
2022-09-22T00:29:17.310Z,0.63
2022-09-22T00:31:47.006Z,1.15
2022-09-22T00:34:22.990Z,0.32
2022-09-22T00:36:50.470Z,0.52
2022-09-22T00:39:18.686Z,0.75
2022-09-22T00:41:51.352Z,0.60
2022-09-22T00:44:21.697Z,0.73
2022-09-22T00:47:13.929Z,0.65
2022-09-22T00:50:02.909Z,1.38
2022-09-22T00:52:38.421Z,1.00
2022-09-22T00:55:12.140Z,0.45
2022-09-22T00:57:41.092Z,0.50
2022-09-22T01:00:10.613Z,1.27
2022-09-22T01:02:41.321Z,1.10
2022-09-22T01:05:09.467Z,1.00
2022-09-22T01:07:37.407Z,0.85
2022-09-22T01:12:32.844Z,1.00
2022-09-22T01:17:48.816Z,0.73
2022-09-22T01:20:50.440Z,1.55
2022-09-22T01:23:24.527Z,0.90
2022-09-22T01:26:07.288Z,1.73
2022-09-22T01:29:02.330Z,1.58
2022-09-22T01:31:34.901Z,0.55
2022-09-22T01:34:12.418Z,0.63
2022-09-22T01:36:49.710Z,0.35
2022-09-22T01:39:28.213Z,2.10
2022-09-22T01:42:05.950Z,1.50
2022-09-22T01:44:38.030Z,1.77
2022-09-22T01:47:14.207Z,1.17
2022-09-22T01:49:48.019Z,1.27
2022-09-22T01:52:26.665Z,1.23
2022-09-22T01:55:11.929Z,3.22
2022-09-22T01:57:44.565Z,2.22
2022-09-22T02:00:12.207Z,1.02
2022-09-22T02:02:54.612Z,0.90
2022-09-22T02:05:32.399Z,2.15
2022-09-22T02:08:03.334Z,1.65
2022-09-22T02:10:36.837Z,0.98
2022-09-22T02:13:04.140Z,1.42
2022-09-22T02:15:50.374Z,1.17
2022-09-22T02:18:27.971Z,1.55
2022-09-22T02:20:56.197Z,2.00
2022-09-22T02:23:23.347Z,1.50
2022-09-22T02:25:51.831Z,1.40
2022-09-22T02:28:25.072Z,1.80
2022-09-22T02:31:17.961Z,1.00
2022-09-22T02:33:42.155Z,0.98
2022-09-22T02:36:29.853Z,1.38
2022-09-22T02:41:52.630Z,1.20
2022-09-22T02:44:32.027Z,1.02
2022-09-22T02:47:09.732Z,1.52
2022-09-22T02:49:37.338Z,1.70
2022-09-22T02:52:10.732Z,1.67
2022-09-22T02:54:39.255Z,1.33
2022-09-22T02:57:08.877Z,0.88
2022-09-22T02:59:35.988Z,1.55
2022-09-22T03:02:03.352Z,1.13
2022-09-22T03:04:30.964Z,1.23
2022-09-22T03:06:58.215Z,1.38
2022-09-22T03:09:25.324Z,1.90
2022-09-22T03:11:52.447Z,1.53
2022-09-22T03:14:19.645Z,1.30
2022-09-22T03:16:46.800Z,0.85
2022-09-22T03:19:14.024Z,0.68
2022-09-22T03:21:41.231Z,1.47
2022-09-22T03:24:08.355Z,1.42
2022-09-22T03:26:35.585Z,1.50
2022-09-22T03:29:02.783Z,1.70
2022-09-22T03:31:29.847Z,0.93
2022-09-22T03:33:56.952Z,1.67
2022-09-22T03:36:24.155Z,0.85
2022-09-22T03:38:52.086Z,1.23
2022-09-22T03:43:46.670Z,1.70
2022-09-22T03:46:14.388Z,1.00
2022-09-22T03:48:44.983Z,1.80
2022-09-22T03:51:12.831Z,2.28
2022-09-22T03:53:39.990Z,0.90
2022-09-22T03:56:08.392Z,2.92
2022-09-22T03:58:36.260Z,1.27
2022-09-22T04:01:05.053Z,0.80
2022-09-22T04:03:32.544Z,1.00
2022-09-22T04:05:59.897Z,0.68
2022-09-22T04:08:26.999Z,1.35
2022-09-22T04:10:54.243Z,1.48
2022-09-22T04:13:21.402Z,1.30
2022-09-22T04:15:48.544Z,1.23
2022-09-22T04:18:15.910Z,1.67
2022-09-22T04:20:44.358Z,1.23
2022-09-22T04:23:12.446Z,0.90
2022-09-22T04:25:39.864Z,0.90
2022-09-22T04:28:07.681Z,1.17
2022-09-22T04:30:37.194Z,1.15
2022-09-22T04:33:04.843Z,0.88
2022-09-22T04:35:33.239Z,1.00
2022-09-22T04:38:00.779Z,1.30
2022-09-22T04:40:28.761Z,1.35
2022-09-22T04:45:23.784Z,1.67
2022-09-22T04:47:53.026Z,1.23
2022-09-22T04:50:22.644Z,1.15
2022-09-22T04:52:52.854Z,0.90
2022-09-22T04:55:21.321Z,1.35
2022-09-22T04:57:49.484Z,1.02
2022-09-22T05:00:17.447Z,1.75
2022-09-22T05:05:12.961Z,1.20
2022-09-22T05:07:45.890Z,2.42
2022-09-22T05:10:15.020Z,1.50
2022-09-22T05:12:42.939Z,0.65
2022-09-22T05:17:46.337Z,0.40
2022-09-22T05:20:13.908Z,1.38
2022-09-22T05:22:41.777Z,1.10
2022-09-22T05:25:11.313Z,2.10
2022-09-22T05:27:50.084Z,1.70
2022-09-22T05:30:18.517Z,2.42
2022-09-22T05:32:47.249Z,1.27
2022-09-22T05:35:18.094Z,1.50
2022-09-22T05:37:51.074Z,2.35
2022-09-22T05:40:19.102Z,1.70
2022-09-22T05:42:49.171Z,2.15
2022-09-22T05:45:18.312Z,2.08
2022-09-22T05:47:46.295Z,2.05
2022-09-22T05:52:41.598Z,0.93
2022-09-22T05:55:09.255Z,1.52
2022-09-22T05:57:37.241Z,1.15
2022-09-22T06:02:44.362Z,1.42
2022-09-22T06:05:11.851Z,2.13
2022-09-22T06:07:54.267Z,1.98
2022-09-22T06:10:21.660Z,1.75
2022-09-22T06:12:48.792Z,2.87
2022-09-22T06:15:15.998Z,1.00
2022-09-22T06:17:43.310Z,2.20
2022-09-22T06:20:10.423Z,1.77
2022-09-22T06:22:37.571Z,1.60
2022-09-22T06:25:05.226Z,1.73
2022-09-22T06:27:32.343Z,1.80
2022-09-22T06:29:59.496Z,1.75
2022-09-22T06:32:26.640Z,2.42
2022-09-22T06:34:53.825Z,2.28
2022-09-22T06:37:20.939Z,2.17
2022-09-22T06:39:48.095Z,1.98
2022-09-22T06:45:42.863Z,1.23
2022-09-22T06:48:11.209Z,2.38
2022-09-22T06:50:40.709Z,1.23
2022-09-22T06:53:11.881Z,1.83
2022-09-22T06:55:43.384Z,2.35
2022-09-22T06:58:12.994Z,1.25
2022-09-22T07:00:45.948Z,1.55
2022-09-22T07:03:13.401Z,1.65
2022-09-22T07:05:40.552Z,2.42
2022-09-22T07:08:09.115Z,1.58
2022-09-22T07:10:39.002Z,2.08
2022-09-22T07:13:06.540Z,1.98
2022-09-22T07:15:35.662Z,1.10
2022-09-22T07:18:04.471Z,1.90
2022-09-22T07:20:33.692Z,0.80
2022-09-22T07:23:01.072Z,1.48
2022-09-22T07:25:29.122Z,2.70
2022-09-22T07:30:36.368Z,0.68
2022-09-22T07:33:03.738Z,1.08
2022-09-22T07:35:31.729Z,3.92
2022-09-22T07:40:31.543Z,1.88
2022-09-22T07:42:58.717Z,1.20
2022-09-22T07:45:25.933Z,1.33
2022-09-22T07:48:11.532Z,1.92
2022-09-22T07:50:39.029Z,1.42
2022-09-22T07:53:06.289Z,0.77
2022-09-22T07:55:34.208Z,0.75
2022-09-22T08:00:33.634Z,1.38
2022-09-22T08:03:01.345Z,1.40
2022-09-22T08:05:29.211Z,1.25
2022-09-22T08:07:58.382Z,1.60
2022-09-22T08:10:26.513Z,1.58
2022-09-22T08:15:26.684Z,1.58
2022-09-22T08:18:03.902Z,0.70
2022-09-22T08:20:31.036Z,0.65
2022-09-22T08:22:58.232Z,0.93
2022-09-22T08:25:25.505Z,1.60
2022-09-22T08:27:52.665Z,1.27
2022-09-22T08:30:20.014Z,0.90
2022-09-22T08:32:47.910Z,2.05
2022-09-22T08:35:15.209Z,0.70
2022-09-22T08:37:43.814Z,1.27
2022-09-22T08:40:23.765Z,0.57
2022-09-22T08:42:54.557Z,0.85
2022-09-22T08:45:36.736Z,0.95
2022-09-22T08:48:34.444Z,1.08
2022-09-22T08:51:31.830Z,0.98
2022-09-22T08:56:44.405Z,1.40
2022-09-22T08:59:18.209Z,0.82
2022-09-22T09:01:52.415Z,0.38
2022-09-22T09:04:42.493Z,0.95
2022-09-22T09:07:28.413Z,1.20
2022-09-22T09:10:03.990Z,1.00
2022-09-22T09:12:41.893Z,1.38
2022-09-22T09:15:34.117Z,0.68
2022-09-22T09:18:03.876Z,1.13
2022-09-22T09:20:38.941Z,0.90
2022-09-22T09:23:21.046Z,1.45
2022-09-22T09:25:54.306Z,0.50
2022-09-22T09:28:37.477Z,1.38
2022-09-22T09:31:41.491Z,0.90
2022-09-22T09:34:18.058Z,1.23
2022-09-22T09:36:52.892Z,0.20
2022-09-22T09:39:28.058Z,0.52
2022-09-22T09:41:57.071Z,0.50
2022-09-22T09:44:40.123Z,0.68
2022-09-22T09:47:27.365Z,1.08
2022-09-22T09:49:55.125Z,1.52
2022-09-22T09:52:26.527Z,0.82
2022-09-22T09:54:54.556Z,0.35
2022-09-22T09:57:27.697Z,0.93
2022-09-22T10:00:32.589Z,1.00
2022-09-22T10:03:02.863Z,0.95
2022-09-22T10:05:32.464Z,1.08
2022-09-22T10:08:13.757Z,0.93
2022-09-22T10:10:42.301Z,0.38
2022-09-22T10:13:09.346Z,1.33
2022-09-22T10:15:41.313Z,0.93
2022-09-22T10:18:26.674Z,0.90
2022-09-22T10:21:15.599Z,0.68
2022-09-22T10:23:47.976Z,0.77
2022-09-22T10:26:28.022Z,0.40
2022-09-22T10:29:20.907Z,0.47
2022-09-22T10:32:10.991Z,0.50
2022-09-22T10:34:41.019Z,0.32
2022-09-22T10:37:12.090Z,0.40
2022-09-22T10:39:49.226Z,1.77
2022-09-22T10:42:38.210Z,0.40
2022-09-22T10:45:12.264Z,0.20
2022-09-22T10:47:59.009Z,0.80
2022-09-22T10:50:49.645Z,0.50
2022-09-22T10:53:34.871Z,0.30
2022-09-22T10:56:13.544Z,0.35
2022-09-22T10:58:56.086Z,0.20
2022-09-22T11:02:04.805Z,0.90
2022-09-22T11:04:53.642Z,0.10
2022-09-22T11:08:13.197Z,0.10
2022-09-22T11:11:25.682Z,0.30
2022-09-22T11:14:09.630Z,0.20
2022-09-22T11:16:55.416Z,0.10
2022-09-22T11:19:42.216Z,0.32
2022-09-22T11:22:40.120Z,0.15
2022-09-22T11:25:23.279Z,0.50
2022-09-22T11:28:12.236Z,0.13
2022-09-22T11:30:47.225Z,0.90
2022-09-22T11:33:24.714Z,0.30
2022-09-22T11:36:15.105Z,0.20
2022-09-22T11:39:10.246Z,0.20
2022-09-22T11:41:43.967Z,0.57
2022-09-22T11:44:39.016Z,0.65
2022-09-22T11:47:25.331Z,0.20
2022-09-22T11:50:30.408Z,0.30
2022-09-22T11:53:28.960Z,0.38
2022-09-22T11:56:33.651Z,0.30
2022-09-22T11:59:10.529Z,0.20
2022-09-22T12:01:38.997Z,0.30
2022-09-22T12:04:21.902Z,0.20
2022-09-22T12:06:54.556Z,0.30
2022-09-22T12:09:28.798Z,0.20
2022-09-22T12:11:59.272Z,0.22
2022-09-22T12:14:27.658Z,0.38
2022-09-22T12:16:54.745Z,0.10
2022-09-22T12:19:43.290Z,0.20
2022-09-22T12:22:25.792Z,0.35
2022-09-22T12:24:52.928Z,0.10
2022-09-22T12:27:25.186Z,0.17
2022-09-22T12:29:58.034Z,0.10
2022-09-22T12:32:34.610Z,0.25
2022-09-22T12:35:02.542Z,0.50
2022-09-22T12:40:13.635Z,0.10
2022-09-22T12:42:43.399Z,0.10
2022-09-22T12:45:29.060Z,0.10
2022-09-22T12:47:57.962Z,0.20
2022-09-22T12:50:24.999Z,0.10
2022-09-22T12:52:52.057Z,0.10
2022-09-22T12:55:28.503Z,0.10
2022-09-22T12:58:01.358Z,0.10
2022-09-22T13:00:33.061Z,0.10
2022-09-22T13:03:01.736Z,0.52
2022-09-22T13:05:28.850Z,0.10
2022-09-22T13:07:55.992Z,0.17
2022-09-22T13:10:23.176Z,0.10
2022-09-22T13:13:05.831Z,0.20
2022-09-22T13:15:51.230Z,0.17
2022-09-22T13:18:41.727Z,0.30
2022-09-22T13:21:14.749Z,0.43
2022-09-22T13:23:51.632Z,0.30
2022-09-22T13:26:24.750Z,0.40
2022-09-22T13:29:15.692Z,0.25
2022-09-22T13:31:51.188Z,0.30
2022-09-22T13:34:27.450Z,0.20
2022-09-22T13:37:00.789Z,0.50
2022-09-22T13:39:32.089Z,0.20
2022-09-22T13:42:05.094Z,0.20
2022-09-22T13:44:34.782Z,0.20
2022-09-22T13:47:06.976Z,0.10
2022-09-22T13:49:44.353Z,0.35
2022-09-22T13:52:19.149Z,0.30
2022-09-22T13:54:51.258Z,0.63
2022-09-22T13:57:22.454Z,0.20
2022-09-22T13:59:52.399Z,0.30
2022-09-22T14:02:30.678Z,0.65
2022-09-22T14:05:08.946Z,0.43
2022-09-22T14:07:49.460Z,0.35
2022-09-22T14:10:23.191Z,0.20
2022-09-22T14:12:51.304Z,0.57
2022-09-22T14:18:26.005Z,0.40
2022-09-22T14:20:55.847Z,0.25
2022-09-22T14:23:30.754Z,0.10
2022-09-22T14:26:00.587Z,0.10
2022-09-22T14:28:31.830Z,0.10
2022-09-22T14:30:59.073Z,0.40
2022-09-22T14:33:31.088Z,0.40
2022-09-22T14:36:01.744Z,0.30
2022-09-22T14:38:30.464Z,0.20
2022-09-22T14:41:02.875Z,0.10
2022-09-22T14:43:42.378Z,0.30
2022-09-22T14:46:40.205Z,0.20
2022-09-22T14:49:43.179Z,0.28
2022-09-22T14:52:23.302Z,0.30
2022-09-22T14:54:51.183Z,1.42
2022-09-22T15:00:11.963Z,0.17
2022-09-22T15:02:41.622Z,0.30
2022-09-22T15:05:11.913Z,0.38
2022-09-22T15:07:45.077Z,0.28
2022-09-22T15:10:26.873Z,0.60
2022-09-22T15:12:55.989Z,0.30
2022-09-22T15:15:29.248Z,0.10
2022-09-22T15:18:19.482Z,0.30
2022-09-22T15:20:50.365Z,0.10
2022-09-22T15:23:21.308Z,0.63
2022-09-22T15:25:49.770Z,0.20
2022-09-22T15:28:20.195Z,0.30
2022-09-22T15:30:48.708Z,0.32
2022-09-22T15:33:17.107Z,0.13
2022-09-22T15:35:47.097Z,0.22
2022-09-22T15:38:21.172Z,0.30
2022-09-22T15:40:48.319Z,0.28
2022-09-22T15:43:20.846Z,0.20
2022-09-22T15:45:51.579Z,0.10
2022-09-22T15:48:23.437Z,0.28
2022-09-22T15:50:51.373Z,0.30
2022-09-22T15:55:45.418Z,0.10
2022-09-22T15:58:15.906Z,0.52
2022-09-22T16:00:43.051Z,0.25
2022-09-22T16:03:15.386Z,0.15
2022-09-22T16:05:43.610Z,0.25
2022-09-22T16:08:14.739Z,0.35
2022-09-22T16:10:44.269Z,0.10
2022-09-22T16:13:12.427Z,0.20
2022-09-22T16:15:40.049Z,0.32
2022-09-22T16:18:08.595Z,0.20
2022-09-22T16:20:37.390Z,0.35
2022-09-22T16:23:06.607Z,0.20
2022-09-22T16:25:33.838Z,0.10
2022-09-22T16:28:01.269Z,0.20
2022-09-22T16:30:28.575Z,0.17
2022-09-22T16:32:55.953Z,0.22
2022-09-22T16:35:24.365Z,0.35
2022-09-22T16:37:55.874Z,0.60
2022-09-22T16:40:24.369Z,0.63
2022-09-22T16:42:52.135Z,0.20
2022-09-22T16:45:39.375Z,0.40
2022-09-22T16:48:07.397Z,0.30
2022-09-22T16:50:37.091Z,0.28
2022-09-22T16:53:07.056Z,0.30
2022-09-22T16:55:37.328Z,0.22
2022-09-22T16:58:08.265Z,0.35
2022-09-22T17:00:35.971Z,0.20
2022-09-22T17:03:03.152Z,0.22
2022-09-22T17:05:34.768Z,0.63
2022-09-22T17:08:06.474Z,0.47
2022-09-22T17:10:35.873Z,0.20
2022-09-22T17:13:04.867Z,0.55
2022-09-22T17:15:36.205Z,0.30
2022-09-22T17:18:03.938Z,0.68
2022-09-22T17:20:31.477Z,0.63
2022-09-22T17:22:58.809Z,0.30
2022-09-22T17:25:29.184Z,0.25
2022-09-22T17:27:56.864Z,0.22
2022-09-22T17:30:24.040Z,0.10
2022-09-22T17:32:51.279Z,0.40
2022-09-22T17:35:18.860Z,0.55
2022-09-22T17:37:47.284Z,0.60
2022-09-22T17:40:14.706Z,0.30
2022-09-22T17:42:41.819Z,0.25
2022-09-22T17:45:09.576Z,0.27
2022-09-22T17:47:55.038Z,0.77
2022-09-22T17:50:43.746Z,1.25
2022-09-22T17:53:29.905Z,0.50
2022-09-22T17:55:59.415Z,0.40
2022-09-22T17:58:26.644Z,0.55
2022-09-22T18:00:53.742Z,0.85
2022-09-22T18:03:20.785Z,1.13
2022-09-22T18:05:52.451Z,0.57
2022-09-22T18:08:19.765Z,0.20
2022-09-22T18:10:47.240Z,0.40
2022-09-22T18:13:14.490Z,0.30
2022-09-22T18:15:42.006Z,0.40
2022-09-22T18:18:09.256Z,0.52
2022-09-22T18:20:36.493Z,0.20
2022-09-22T18:23:03.948Z,0.20
2022-09-22T18:25:33.869Z,0.30
2022-09-22T18:28:01.258Z,0.20
2022-09-22T18:30:28.457Z,0.20
2022-09-22T18:32:56.327Z,0.40
2022-09-22T18:37:51.852Z,0.20
2022-09-22T18:40:19.066Z,0.65
2022-09-22T18:42:46.210Z,1.13
2022-09-22T18:45:14.487Z,0.50
2022-09-22T18:47:43.497Z,0.57
2022-09-22T18:50:11.812Z,0.10
2022-09-22T18:52:42.746Z,0.60
2022-09-22T18:55:11.997Z,1.00
2022-09-22T18:57:39.139Z,0.52
2022-09-22T19:00:06.979Z,0.57
2022-09-22T19:02:34.230Z,0.52
2022-09-22T19:05:01.569Z,0.25
2022-09-22T19:07:41.374Z,0.40
2022-09-22T19:10:12.267Z,0.50
2022-09-22T19:12:39.706Z,0.15
2022-09-22T19:15:13.598Z,0.25
2022-09-22T19:17:44.142Z,0.30
2022-09-22T19:20:17.867Z,0.20
2022-09-22T19:22:45.806Z,0.52
2022-09-22T19:25:13.279Z,0.22
2022-09-22T19:27:40.530Z,0.20
2022-09-22T19:30:09.878Z,0.35
2022-09-22T19:32:37.735Z,0.40
2022-09-22T19:35:06.516Z,0.28
2022-09-22T19:37:34.054Z,0.73
2022-09-22T19:42:29.294Z,0.22
2022-09-22T19:44:56.724Z,0.57
2022-09-22T19:47:23.844Z,1.05
2022-09-22T19:49:51.263Z,0.20
2022-09-22T19:52:18.492Z,0.50
2022-09-22T19:54:45.780Z,0.30
2022-09-22T19:57:13.513Z,0.88
2022-09-22T19:59:40.740Z,1.00
2022-09-22T20:02:13.274Z,0.85
2022-09-22T20:04:41.358Z,1.67
2022-09-22T20:07:10.965Z,1.58
2022-09-22T20:09:38.763Z,0.70
2022-09-22T20:12:06.543Z,1.15
2022-09-22T20:14:33.776Z,1.50
2022-09-22T20:17:03.798Z,1.33
2022-09-22T20:19:33.727Z,2.00
2022-09-22T20:22:25.633Z,1.70
2022-09-22T20:24:58.594Z,1.33
2022-09-22T20:27:35.264Z,1.10
2022-09-22T20:30:03.892Z,0.93
2022-09-22T20:32:32.269Z,1.20
2022-09-22T20:34:59.405Z,1.05
2022-09-22T20:37:26.564Z,0.95
2022-09-22T20:39:53.818Z,1.40
2022-09-22T20:42:21.346Z,1.35
2022-09-22T20:44:49.223Z,1.02
2022-09-22T20:47:18.669Z,1.17
2022-09-22T20:49:51.267Z,0.68
2022-09-22T20:52:20.165Z,1.17
2022-09-22T20:54:48.266Z,0.60
2022-09-22T20:57:16.110Z,0.70
2022-09-22T20:59:47.504Z,0.95
2022-09-22T21:02:15.351Z,1.30
2022-09-22T21:07:11.353Z,1.02
2022-09-22T21:10:17.078Z,1.40
2022-09-22T21:12:44.354Z,0.82
2022-09-22T21:15:11.699Z,0.90
2022-09-22T21:17:43.274Z,1.00
2022-09-22T21:20:11.263Z,0.55
2022-09-22T21:22:38.769Z,1.17
2022-09-22T21:25:06.151Z,0.73
2022-09-22T21:27:33.317Z,1.50
2022-09-22T21:30:00.463Z,0.80
2022-09-22T21:32:27.667Z,0.73
2022-09-22T21:34:56.285Z,1.23
2022-09-22T21:37:24.892Z,1.58
2022-09-22T21:39:52.150Z,0.93
2022-09-22T21:42:19.929Z,0.73
2022-09-22T21:44:48.581Z,0.57
2022-09-22T21:47:15.700Z,0.82
2022-09-22T21:49:42.974Z,1.35
2022-09-22T21:52:10.198Z,0.93
2022-09-22T21:54:37.556Z,0.55
2022-09-22T21:57:04.854Z,1.08
2022-09-22T21:59:31.961Z,0.85
2022-09-22T22:01:59.691Z,0.90
2022-09-22T22:04:27.008Z,0.60
2022-09-22T22:06:55.022Z,1.13
2022-09-22T22:09:24.203Z,0.57
2022-09-22T22:11:55.425Z,1.02
2022-09-22T22:14:24.768Z,1.10
2022-09-22T22:16:54.229Z,0.73
2022-09-22T22:19:24.849Z,1.40
2022-09-22T22:21:52.420Z,1.00
2022-09-22T22:24:28.915Z,0.85
2022-09-22T22:27:07.924Z,0.60
2022-09-22T22:29:36.426Z,1.13
2022-09-22T22:32:07.796Z,0.80
2022-09-22T22:34:35.298Z,0.90
2022-09-22T22:37:04.618Z,0.52
2022-09-22T22:39:32.582Z,0.88
2022-09-22T22:44:26.634Z,0.52
2022-09-22T22:46:53.926Z,0.85
2022-09-22T22:49:21.097Z,1.27
2022-09-22T22:51:49.508Z,0.55
2022-09-22T22:54:17.140Z,0.68
2022-09-22T22:56:47.750Z,0.98
2022-09-22T22:59:18.190Z,1.02
2022-09-22T23:04:12.698Z,1.42
2022-09-22T23:06:44.044Z,0.50
2022-09-22T23:09:14.493Z,0.80
2022-09-22T23:11:42.625Z,0.73
2022-09-22T23:14:11.831Z,1.08
2022-09-22T23:16:41.531Z,0.90
2022-09-22T23:19:12.558Z,1.00
2022-09-22T23:21:40.364Z,0.65
2022-09-22T23:24:08.417Z,0.75
2022-09-22T23:26:37.327Z,1.42
2022-09-22T23:29:06.047Z,0.70
2022-09-22T23:31:33.570Z,1.05
2022-09-22T23:34:01.330Z,0.63
2022-09-22T23:36:29.535Z,0.85
2022-09-22T23:39:04.012Z,0.57
2022-09-22T23:41:36.540Z,0.32
2022-09-22T23:44:06.812Z,0.40
2022-09-22T23:46:34.722Z,0.52
2022-09-22T23:49:02.445Z,0.50
2022-09-22T23:51:30.089Z,0.77
2022-09-22T23:53:57.409Z,0.68
2022-09-22T23:56:25.169Z,0.40
2022-09-22T23:58:52.870Z,0.70
